Aviation Digital Data Service (ADDS)

Output produced by METARs form (1439 UTC 24 October 2014)
found at http://www.aviationweather.gov/adds/metars/
 
KSPI 241236Z 2413/2512 VRB03KT 1SM BR OVC002 
     TEMPO 2413/2416 1/4SM FG 
     FM241600 22007KT P6SM BKN012 
     FM242100 19005KT P6SM SCT012 BKN250 
     FM250500 21008KT P6SM BKN025